createdAt,value
2018-04-19T00:00:10.700Z,24.33
2018-04-19T00:01:13.265Z,23.05
2018-04-19T00:02:15.802Z,19.17
2018-04-19T00:03:18.333Z,22.55
2018-04-19T00:04:20.869Z,24.20
2018-04-19T00:05:23.394Z,23.00
2018-04-19T00:06:25.953Z,19.50
2018-04-19T00:07:28.492Z,24.75
2018-04-19T00:08:31.028Z,27.37
2018-04-19T00:09:33.564Z,25.55
2018-04-19T00:10:36.109Z,23.80
2018-04-19T00:11:38.667Z,25.70
2018-04-19T00:12:41.207Z,25.62
2018-04-19T00:13:44.504Z,21.85
2018-04-19T00:14:47.804Z,23.55
2018-04-19T00:15:50.336Z,22.98
2018-04-19T00:16:52.907Z,24.40
2018-04-19T00:17:55.427Z,25.42
2018-04-19T00:18:57.982Z,23.38
2018-04-19T00:20:00.541Z,19.12
2018-04-19T00:21:03.102Z,26.83
2018-04-19T00:22:05.638Z,22.87
2018-04-19T00:23:08.940Z,23.00
2018-04-19T00:24:12.610Z,22.98
2018-04-19T00:25:15.179Z,26.65
2018-04-19T00:26:17.707Z,22.48
2018-04-19T00:27:20.240Z,21.80
2018-04-19T00:28:22.763Z,27.55
2018-04-19T00:29:25.337Z,32.15
2018-04-19T00:30:27.871Z,26.20
2018-04-19T00:31:30.404Z,33.25
2018-04-19T00:32:32.956Z,19.40
2018-04-19T00:33:36.248Z,22.85
2018-04-19T00:34:38.794Z,21.23
2018-04-19T00:35:41.358Z,23.75
2018-04-19T00:36:43.920Z,22.58
2018-04-19T00:37:46.443Z,29.35
2018-04-19T00:38:48.959Z,21.90
2018-04-19T00:39:51.492Z,23.40
2018-04-19T00:40:54.023Z,28.77
2018-04-19T00:41:56.575Z,20.95
2018-04-19T00:42:59.871Z,24.35
2018-04-19T00:44:02.395Z,22.27
2018-04-19T00:45:04.981Z,25.48
2018-04-19T00:46:08.292Z,22.73
2018-04-19T00:47:10.828Z,24.70
2018-04-19T00:48:13.356Z,23.02
2018-04-19T00:49:15.885Z,21.98
2018-04-19T00:50:18.447Z,31.90
2018-04-19T00:51:21.736Z,20.90
2018-04-19T00:52:36.023Z,24.00
2018-04-19T00:53:38.546Z,24.50
2018-04-19T00:54:41.111Z,30.67
2018-04-19T00:55:43.682Z,23.42
2018-04-19T00:56:46.220Z,30.20
2018-04-19T00:57:49.511Z,23.40
2018-04-19T00:58:52.807Z,26.92
2018-04-19T00:59:55.332Z,23.55
2018-04-19T01:00:57.904Z,26.17
2018-04-19T01:02:00.469Z,28.85
2018-04-19T01:03:02.996Z,21.40
2018-04-19T01:04:05.533Z,24.95
2018-04-19T01:05:08.075Z,23.02
2018-04-19T01:06:10.604Z,23.77
2018-04-19T01:07:13.161Z,34.30
2018-04-19T01:08:15.690Z,28.80
2018-04-19T01:09:18.984Z,25.70
2018-04-19T01:10:21.539Z,24.75
2018-04-19T01:11:24.867Z,34.03
2018-04-19T01:12:27.427Z,28.02
2018-04-19T01:13:29.956Z,31.05
2018-04-19T01:14:33.255Z,29.48
2018-04-19T01:15:35.807Z,28.60
2018-04-19T01:16:38.329Z,27.98
2018-04-19T01:17:40.865Z,28.33
2018-04-19T01:18:43.412Z,25.55
2018-04-19T01:19:46.736Z,26.80
2018-04-19T01:20:49.257Z,21.40
2018-04-19T01:21:52.551Z,28.67
2018-04-19T01:22:55.880Z,30.85
2018-04-19T01:23:58.415Z,25.42
2018-04-19T01:25:00.968Z,25.05
2018-04-19T01:26:03.508Z,22.67
2018-04-19T01:27:06.044Z,21.33
2018-04-19T01:28:08.615Z,22.98
2018-04-19T01:29:11.142Z,26.83
2018-04-19T01:30:13.683Z,29.05
2018-04-19T01:31:17.035Z,22.05
2018-04-19T01:32:19.573Z,28.62
2018-04-19T01:33:22.116Z,24.70
2018-04-19T01:34:24.647Z,26.08
2018-04-19T01:35:38.880Z,24.35
2018-04-19T01:36:41.453Z,25.33
2018-04-19T01:37:43.985Z,30.90
2018-04-19T01:38:46.516Z,26.08
2018-04-19T01:39:49.051Z,26.45
2018-04-19T01:40:51.567Z,28.80
2018-04-19T01:41:54.140Z,23.52
2018-04-19T01:42:56.672Z,25.12
2018-04-19T01:43:59.969Z,25.70
2018-04-19T01:45:02.521Z,25.33
2018-04-19T01:46:05.818Z,28.85
2018-04-19T01:47:09.157Z,23.80
2018-04-19T01:48:11.710Z,22.37
2018-04-19T01:49:14.240Z,25.20
2018-04-19T01:50:16.765Z,24.15
2018-04-19T01:51:19.306Z,23.05
2018-04-19T01:52:21.867Z,22.45
2018-04-19T01:53:24.391Z,19.42
2018-04-19T01:54:27.682Z,28.85
2018-04-19T01:55:30.976Z,25.62
2018-04-19T01:56:33.531Z,26.40
2018-04-19T01:57:36.827Z,20.48
2018-04-19T01:58:39.354Z,25.17
2018-04-19T01:59:41.897Z,22.45
2018-04-19T02:00:44.478Z,27.08
2018-04-19T02:01:47.005Z,21.48
2018-04-19T02:02:49.526Z,20.58
2018-04-19T02:03:52.052Z,22.45
2018-04-19T02:04:54.589Z,23.15
2018-04-19T02:05:57.151Z,26.62
2018-04-19T02:06:59.678Z,24.23
2018-04-19T02:08:02.212Z,26.55
2018-04-19T02:09:05.490Z,22.27
2018-04-19T02:10:08.047Z,26.37
2018-04-19T02:11:10.567Z,26.98
2018-04-19T02:12:13.119Z,33.75
2018-04-19T02:13:16.448Z,23.20
2018-04-19T02:14:19.731Z,29.65
2018-04-19T02:15:23.066Z,25.20
2018-04-19T02:16:25.595Z,24.77
2018-04-19T02:17:28.125Z,25.77
2018-04-19T02:18:30.652Z,31.33
2018-04-19T02:19:33.183Z,24.37
2018-04-19T02:20:35.752Z,26.10
2018-04-19T02:21:38.284Z,24.87
2018-04-19T02:22:40.822Z,27.00
2018-04-19T02:23:43.369Z,30.42
2018-04-19T02:24:45.893Z,30.05
2018-04-19T02:25:49.228Z,25.92
2018-04-19T02:26:51.827Z,25.92
2018-04-19T02:27:54.341Z,26.95
2018-04-19T02:28:56.863Z,29.75
2018-04-19T02:29:59.397Z,20.15
2018-04-19T02:31:01.964Z,24.17
2018-04-19T02:32:04.537Z,25.90
2018-04-19T02:33:07.055Z,26.80
2018-04-19T02:34:10.348Z,27.75
2018-04-19T02:35:12.888Z,25.17
2018-04-19T02:36:15.462Z,29.85
2018-04-19T02:37:18.812Z,29.85
2018-04-19T02:38:21.346Z,27.13
2018-04-19T02:39:23.872Z,28.08
2018-04-19T02:40:26.423Z,26.75
2018-04-19T02:41:28.957Z,22.08
2018-04-19T02:42:31.534Z,29.40
2018-04-19T02:43:34.082Z,27.58
2018-04-19T02:44:36.661Z,27.52
2018-04-19T02:45:39.200Z,23.98
2018-04-19T02:46:42.499Z,22.87
2018-04-19T02:47:45.068Z,25.23
2018-04-19T02:48:47.608Z,29.48
2018-04-19T02:49:50.941Z,28.65
2018-04-19T02:50:53.476Z,28.12
2018-04-19T02:51:56.019Z,25.65
2018-04-19T02:52:59.340Z,30.12
2018-04-19T02:54:01.868Z,29.33
2018-04-19T02:55:05.164Z,25.12
2018-04-19T02:56:08.465Z,26.40
2018-04-19T02:57:11.031Z,30.33
2018-04-19T02:58:13.604Z,31.98
2018-04-19T02:59:16.886Z,27.40
2018-04-19T03:00:19.414Z,30.98
2018-04-19T03:01:21.942Z,28.75
2018-04-19T03:02:24.466Z,25.65
2018-04-19T03:03:27.031Z,25.73
2018-04-19T03:04:29.565Z,32.80
2018-04-19T03:05:32.095Z,34.90
2018-04-19T03:06:34.659Z,29.40
2018-04-19T03:07:37.219Z,29.17
2018-04-19T03:08:39.748Z,27.25
2018-04-19T03:09:43.080Z,27.42
2018-04-19T03:10:45.612Z,37.63
2018-04-19T03:11:48.149Z,25.30
2018-04-19T03:12:50.695Z,30.62
2018-04-19T03:13:53.231Z,29.15
2018-04-19T03:14:55.793Z,23.60
2018-04-19T03:15:58.327Z,25.23
2018-04-19T03:17:00.855Z,30.25
2018-04-19T03:18:03.378Z,29.58
2018-04-19T03:19:05.931Z,25.25
2018-04-19T03:20:09.264Z,27.67
2018-04-19T03:21:11.795Z,30.05
2018-04-19T03:22:14.324Z,26.27
2018-04-19T03:23:16.864Z,31.52
2018-04-19T03:24:19.399Z,29.67
2018-04-19T03:25:21.978Z,26.90
2018-04-19T03:26:24.504Z,26.30
2018-04-19T03:27:27.798Z,26.10
2018-04-19T03:28:31.092Z,29.10
2018-04-19T03:29:34.776Z,30.55
2018-04-19T03:30:38.111Z,25.45
2018-04-19T03:31:40.669Z,30.45
2018-04-19T03:32:43.188Z,22.45
2018-04-19T03:33:46.495Z,28.80
2018-04-19T03:34:49.029Z,30.25
2018-04-19T03:35:52.332Z,26.42
2018-04-19T03:36:54.901Z,24.33
2018-04-19T03:37:57.439Z,23.02
2018-04-19T03:38:59.971Z,30.08
2018-04-19T03:40:02.517Z,35.40
2018-04-19T03:41:05.064Z,27.02
2018-04-19T03:42:08.396Z,30.58
2018-04-19T03:43:10.924Z,33.83
2018-04-19T03:44:13.451Z,28.73
2018-04-19T03:45:15.978Z,28.98
2018-04-19T03:46:18.536Z,28.73
2018-04-19T03:47:21.058Z,27.65
2018-04-19T03:48:23.594Z,29.63
2018-04-19T03:49:26.117Z,33.78
2018-04-19T03:50:28.675Z,24.92
2018-04-19T03:51:31.215Z,32.55
2018-04-19T03:52:33.743Z,31.20
2018-04-19T03:53:36.265Z,28.05
2018-04-19T03:54:39.589Z,27.05
2018-04-19T03:55:42.120Z,29.48
2018-04-19T03:56:45.429Z,28.40
2018-04-19T03:57:48.007Z,28.35
2018-04-19T03:58:50.535Z,34.88
2018-04-19T03:59:54.031Z,27.23
2018-04-19T04:00:57.333Z,25.27
2018-04-19T04:01:59.862Z,27.70
2018-04-19T04:03:03.207Z,26.30
2018-04-19T04:04:05.738Z,27.23
2018-04-19T04:05:08.271Z,35.45
2018-04-19T04:06:10.796Z,30.52
2018-04-19T04:07:13.332Z,33.72
2018-04-19T04:08:16.715Z,23.25
2018-04-19T04:09:19.257Z,27.85
2018-04-19T04:10:21.798Z,29.05
2018-04-19T04:11:24.336Z,20.73
2018-04-19T04:12:26.869Z,25.23
2018-04-19T04:13:30.200Z,26.37
2018-04-19T04:14:32.735Z,24.40
2018-04-19T04:15:35.261Z,31.65
2018-04-19T04:16:49.823Z,22.10
2018-04-19T04:18:04.142Z,29.27
2018-04-19T04:19:18.649Z,26.20
2018-04-19T04:20:33.013Z,26.67
2018-04-19T04:21:47.317Z,30.05
2018-04-19T04:23:02.555Z,22.48
2018-04-19T04:24:05.937Z,23.33
2018-04-19T04:25:08.477Z,27.35
2018-04-19T04:26:11.044Z,31.40
2018-04-19T04:27:13.576Z,23.83
2018-04-19T04:28:16.125Z,23.73
2018-04-19T04:29:19.427Z,30.37
2018-04-19T04:30:21.963Z,31.27
2018-04-19T04:31:24.527Z,23.77
2018-04-19T04:32:27.069Z,24.05
2018-04-19T04:33:29.607Z,24.48
2018-04-19T04:34:32.137Z,24.35
2018-04-19T04:35:35.466Z,31.02
2018-04-19T04:36:37.987Z,26.75
2018-04-19T04:37:41.310Z,24.10
2018-04-19T04:38:43.863Z,25.98
2018-04-19T04:39:46.401Z,22.70
2018-04-19T04:40:48.933Z,25.70
2018-04-19T04:41:51.479Z,27.70
2018-04-19T04:42:54.019Z,26.42
2018-04-19T04:43:56.584Z,27.20
2018-04-19T04:44:59.924Z,26.58
2018-04-19T04:46:02.494Z,29.70
2018-04-19T04:47:05.027Z,37.60
2018-04-19T04:48:07.568Z,25.73
2018-04-19T04:49:10.863Z,27.13
2018-04-19T04:50:13.422Z,29.80
2018-04-19T04:51:16.717Z,25.80
2018-04-19T04:52:19.251Z,30.45
2018-04-19T04:53:22.547Z,30.88
2018-04-19T04:54:25.846Z,27.17
2018-04-19T04:55:28.418Z,31.30
2018-04-19T04:56:30.979Z,24.00
2018-04-19T04:57:33.504Z,26.85
2018-04-19T04:58:36.036Z,27.15
2018-04-19T04:59:38.570Z,26.15
2018-04-19T05:00:41.151Z,31.92
2018-04-19T05:01:43.728Z,25.58
2018-04-19T05:02:46.250Z,28.40
2018-04-19T05:03:48.786Z,30.30
2018-04-19T05:04:51.334Z,27.50
2018-04-19T05:05:53.876Z,31.37
2018-04-19T05:06:56.448Z,31.50
2018-04-19T05:07:58.970Z,29.80
2018-04-19T05:09:01.572Z,23.62
2018-04-19T05:10:04.105Z,28.62
2018-04-19T05:11:06.636Z,33.65
2018-04-19T05:12:09.207Z,29.90
2018-04-19T05:13:11.739Z,32.67
2018-04-19T05:14:14.277Z,34.05
2018-04-19T05:15:17.576Z,26.80
2018-04-19T05:16:20.875Z,28.80
2018-04-19T05:17:23.435Z,30.73
2018-04-19T05:18:25.973Z,24.55
2018-04-19T05:19:28.533Z,26.83
2018-04-19T05:20:31.072Z,31.52
2018-04-19T05:21:33.595Z,31.33
2018-04-19T05:22:36.893Z,35.78
2018-04-19T05:23:39.474Z,30.35
2018-04-19T05:24:42.018Z,27.98
2018-04-19T05:25:44.544Z,35.25
2018-04-19T05:26:47.066Z,36.72
2018-04-19T05:27:49.593Z,34.50
2018-04-19T05:28:52.182Z,31.95
2018-04-19T05:29:54.718Z,37.72
2018-04-19T05:30:57.248Z,35.22
2018-04-19T05:31:59.794Z,32.65
2018-04-19T05:33:02.335Z,43.28
2018-04-19T05:34:04.892Z,37.47
2018-04-19T05:35:07.420Z,29.20
2018-04-19T05:36:09.961Z,32.35
2018-04-19T05:37:12.517Z,45.38
2018-04-19T05:38:15.057Z,27.85
2018-04-19T05:39:17.624Z,31.15
2018-04-19T05:40:20.152Z,35.45
2018-04-19T05:41:22.685Z,34.28
2018-04-19T05:42:25.208Z,33.03
2018-04-19T05:43:27.776Z,37.17
2018-04-19T05:44:30.310Z,45.55
2018-04-19T05:45:32.872Z,47.00
2018-04-19T05:46:35.406Z,36.17
2018-04-19T05:47:38.704Z,40.53
2018-04-19T05:48:41.244Z,34.38
2018-04-19T05:49:44.534Z,35.22
2018-04-19T05:50:47.865Z,30.05
2018-04-19T05:51:50.388Z,31.50
2018-04-19T05:52:53.684Z,33.22
2018-04-19T05:53:56.218Z,35.45
2018-04-19T05:54:58.782Z,30.45
2018-04-19T05:56:01.317Z,35.15
2018-04-19T05:57:03.840Z,32.55
2018-04-19T05:58:06.371Z,33.53
2018-04-19T05:59:08.908Z,30.10
2018-04-19T06:00:11.476Z,28.77
2018-04-19T06:01:14.017Z,35.17
2018-04-19T06:02:16.551Z,32.97
2018-04-19T06:03:19.100Z,30.62
2018-04-19T06:04:21.667Z,34.53
2018-04-19T06:05:24.199Z,26.58
2018-04-19T06:06:26.725Z,34.50
2018-04-19T06:07:30.018Z,30.35
2018-04-19T06:08:33.319Z,33.47
2018-04-19T06:09:35.889Z,35.47
2018-04-19T06:10:38.426Z,33.13
2018-04-19T06:11:41.768Z,33.75
2018-04-19T06:12:44.295Z,33.28
2018-04-19T06:13:46.817Z,39.22
2018-04-19T06:14:49.345Z,34.60
2018-04-19T06:17:00.872Z,32.08
2018-04-19T06:18:03.412Z,30.95
2018-04-19T06:19:06.042Z,33.53
2018-04-19T06:20:08.579Z,33.78
2018-04-19T06:21:11.112Z,33.95
2018-04-19T06:22:13.686Z,41.85
2018-04-19T06:23:16.246Z,35.90
2018-04-19T06:24:18.789Z,35.28
2018-04-19T06:25:21.316Z,36.65
2018-04-19T06:26:23.869Z,34.85
2018-04-19T06:27:26.441Z,40.67
2018-04-19T06:28:28.981Z,35.65
2018-04-19T06:29:31.507Z,37.58
2018-04-19T06:30:34.051Z,43.40
2018-04-19T06:31:36.580Z,30.65
2018-04-19T06:32:39.147Z,31.62
2018-04-19T06:33:41.675Z,34.90
2018-04-19T06:34:44.212Z,40.00
2018-04-19T06:35:46.745Z,45.25
2018-04-19T06:36:49.327Z,33.80
2018-04-19T06:37:51.860Z,43.40
2018-04-19T06:38:54.394Z,34.75
2018-04-19T06:39:57.698Z,35.30
2018-04-19T06:41:00.235Z,35.92
2018-04-19T06:42:03.564Z,40.17
2018-04-19T06:43:06.129Z,39.47
2018-04-19T06:44:08.670Z,34.22
2018-04-19T06:45:11.205Z,40.42
2018-04-19T06:46:13.730Z,38.40
2018-04-19T06:47:16.259Z,36.00
2018-04-19T06:48:18.828Z,44.45
2018-04-19T06:49:22.122Z,34.97
2018-04-19T06:50:24.655Z,43.17
2018-04-19T06:51:27.171Z,34.13
2018-04-19T06:52:29.715Z,41.83
2018-04-19T06:53:32.292Z,42.15
2018-04-19T06:54:34.820Z,39.63
2018-04-19T06:55:37.356Z,40.58
2018-04-19T06:56:40.654Z,45.38
2018-04-19T06:57:43.219Z,37.28
2018-04-19T06:58:45.755Z,37.25
2018-04-19T06:59:48.321Z,40.60
2018-04-19T07:00:50.853Z,40.45
2018-04-19T07:01:54.197Z,43.60
2018-04-19T07:02:56.767Z,37.78
2018-04-19T07:03:59.299Z,39.53
2018-04-19T07:05:01.868Z,44.50
2018-04-19T07:06:04.395Z,41.30
2018-04-19T07:07:06.925Z,47.05
2018-04-19T07:08:09.447Z,37.47
2018-04-19T07:09:12.004Z,36.97
2018-04-19T07:10:15.329Z,38.40
2018-04-19T07:11:17.859Z,38.10
2018-04-19T07:12:21.150Z,38.72
2018-04-19T07:13:23.683Z,45.72
2018-04-19T07:14:26.219Z,37.65
2018-04-19T07:15:29.556Z,46.45
2018-04-19T07:16:32.090Z,40.72
2018-04-19T07:17:34.612Z,35.67
2018-04-19T07:18:37.160Z,40.85
2018-04-19T07:19:39.694Z,37.40
2018-04-19T07:20:42.269Z,44.25
2018-04-19T07:21:44.803Z,35.35
2018-04-19T07:22:47.335Z,40.63
2018-04-19T07:23:49.875Z,44.38
2018-04-19T07:24:53.176Z,42.17
2018-04-19T07:25:55.751Z,41.55
2018-04-19T07:26:58.280Z,43.15
2018-04-19T07:28:00.851Z,56.47
2018-04-19T07:29:03.383Z,33.92
2018-04-19T07:30:05.912Z,39.13
2018-04-19T07:31:08.449Z,39.70
2018-04-19T07:32:11.017Z,38.45
2018-04-19T07:33:14.317Z,35.90
2018-04-19T07:34:17.620Z,38.00
2018-04-19T07:35:20.153Z,39.75
2018-04-19T07:36:23.448Z,42.35
2018-04-19T07:37:26.788Z,48.53
2018-04-19T07:38:29.311Z,36.15
2018-04-19T07:39:31.847Z,40.78
2018-04-19T07:40:34.384Z,37.90
2018-04-19T07:41:36.933Z,46.67
2018-04-19T07:42:39.508Z,37.20
2018-04-19T07:43:42.047Z,40.58
2018-04-19T07:44:44.578Z,44.28
2018-04-19T07:45:47.159Z,42.42
2018-04-19T07:46:50.459Z,41.25
2018-04-19T07:47:52.984Z,45.55
2018-04-19T07:48:55.516Z,45.35
2018-04-19T07:49:58.051Z,37.17
2018-04-19T07:51:01.384Z,42.83
2018-04-19T07:52:03.911Z,39.67
2018-04-19T07:53:06.459Z,39.70
2018-04-19T07:54:09.767Z,43.80
2018-04-19T07:55:12.300Z,35.25
2018-04-19T07:56:14.877Z,41.00
2018-04-19T07:57:18.182Z,46.47
2018-04-19T07:58:20.706Z,43.87
2018-04-19T07:59:23.236Z,39.28
2018-04-19T08:00:25.772Z,40.22
2018-04-19T08:01:28.335Z,44.17
2018-04-19T08:02:30.881Z,45.22
2018-04-19T08:03:33.420Z,47.25
2018-04-19T08:04:35.955Z,43.22
2018-04-19T08:05:38.524Z,44.40
2018-04-19T08:06:41.065Z,43.25
2018-04-19T08:07:44.392Z,45.15
2018-04-19T08:08:46.915Z,37.40
2018-04-19T08:09:49.473Z,42.38
2018-04-19T08:10:52.768Z,38.85
2018-04-19T08:11:55.338Z,46.30
2018-04-19T08:12:57.868Z,41.13
2018-04-19T08:14:00.448Z,37.90
2018-04-19T08:15:03.751Z,50.97
2018-04-19T08:16:06.291Z,42.40
2018-04-19T08:17:08.876Z,41.47
2018-04-19T08:18:12.170Z,43.20
2018-04-19T08:19:14.736Z,37.50
2018-04-19T08:20:17.278Z,38.15
2018-04-19T08:21:20.579Z,56.03
2018-04-19T08:22:23.879Z,41.92
2018-04-19T08:23:26.408Z,50.65
2018-04-19T08:24:29.023Z,40.80
2018-04-19T08:25:31.515Z,46.35
2018-04-19T08:26:34.047Z,42.33
2018-04-19T08:27:36.609Z,42.10
2018-04-19T08:28:39.167Z,37.10
2018-04-19T08:29:41.703Z,44.42
2018-04-19T08:30:44.276Z,41.28
2018-04-19T08:31:46.823Z,43.45
2018-04-19T08:32:49.353Z,34.70
2018-04-19T08:33:51.883Z,41.63
2018-04-19T08:34:55.187Z,44.67
2018-04-19T08:35:57.758Z,34.92
2018-04-19T08:37:00.293Z,36.85
2018-04-19T08:38:02.820Z,36.75
2018-04-19T08:39:06.111Z,37.30
2018-04-19T08:40:08.649Z,38.47
2018-04-19T08:41:11.213Z,36.22
2018-04-19T08:42:13.746Z,40.45
2018-04-19T08:43:17.044Z,39.17
2018-04-19T08:44:19.574Z,35.35
2018-04-19T08:45:22.116Z,41.25
2018-04-19T08:46:24.675Z,39.53
2018-04-19T08:47:27.217Z,40.50
2018-04-19T08:48:29.752Z,34.88
2018-04-19T08:49:32.288Z,54.15
2018-04-19T08:50:34.867Z,38.20
2018-04-19T08:51:37.415Z,40.88
2018-04-19T08:52:39.986Z,33.05
2018-04-19T08:53:42.506Z,39.78
2018-04-19T08:54:45.812Z,40.03
2018-04-19T08:55:48.353Z,35.00
2018-04-19T08:56:50.891Z,38.90
2018-04-19T08:57:53.482Z,36.70
2018-04-19T08:58:56.792Z,36.70
2018-04-19T08:59:59.327Z,45.97
2018-04-19T09:01:02.671Z,42.72
2018-04-19T09:02:05.209Z,39.63
2018-04-19T09:03:07.735Z,35.67
2018-04-19T09:04:10.287Z,33.53
2018-04-19T09:05:12.879Z,45.73
2018-04-19T09:06:15.406Z,39.38
2018-04-19T09:07:18.712Z,38.73
2018-04-19T09:08:21.235Z,41.83
2018-04-19T09:09:23.772Z,44.30
2018-04-19T09:10:27.100Z,34.97
2018-04-19T09:11:29.637Z,41.23
2018-04-19T09:12:32.164Z,44.97
2018-04-19T09:13:34.724Z,35.10
2018-04-19T09:14:37.245Z,39.60
2018-04-19T09:15:39.916Z,38.30
2018-04-19T09:16:43.263Z,38.73
2018-04-19T09:17:46.559Z,39.70
2018-04-19T09:18:49.865Z,35.40
2018-04-19T09:19:52.440Z,34.63
2018-04-19T09:20:54.969Z,34.50
2018-04-19T09:21:58.268Z,38.53
2018-04-19T09:23:00.820Z,35.37
2018-04-19T09:24:04.120Z,30.53
2018-04-19T09:25:06.698Z,36.40
2018-04-19T09:26:09.260Z,37.23
2018-04-19T09:27:11.843Z,30.80
2018-04-19T09:28:14.366Z,29.50
2018-04-19T09:29:16.902Z,33.50
2018-04-19T09:30:20.236Z,37.70
2018-04-19T09:31:22.771Z,34.20
2018-04-19T09:32:25.318Z,32.23
2018-04-19T09:33:27.853Z,33.73
2018-04-19T09:34:30.380Z,34.70
2018-04-19T09:35:33.741Z,30.00
2018-04-19T09:36:36.306Z,32.57
2018-04-19T09:37:38.839Z,42.03
2018-04-19T09:38:41.372Z,33.30
2018-04-19T09:39:44.671Z,34.37
2018-04-19T09:40:47.217Z,27.80
2018-04-19T09:41:50.541Z,31.63
2018-04-19T09:42:53.071Z,28.90
2018-04-19T09:43:56.359Z,37.23
2018-04-19T09:44:58.915Z,38.27
2018-04-19T09:46:02.219Z,30.37
2018-04-19T09:47:04.807Z,31.70
2018-04-19T09:48:07.339Z,30.93
2018-04-19T09:49:09.867Z,28.43
2018-04-19T09:50:12.406Z,29.33
2018-04-19T09:51:14.940Z,25.23
2018-04-19T09:52:18.278Z,25.87
2018-04-19T09:53:20.808Z,35.70
2018-04-19T09:54:23.346Z,30.90
2018-04-19T09:55:26.654Z,31.10
2018-04-19T09:56:29.938Z,25.07
2018-04-19T09:57:32.537Z,23.40
2018-04-19T09:58:35.073Z,20.00
2018-04-19T09:59:37.659Z,17.67
2018-04-19T10:00:45.019Z,18.80
2018-04-19T10:01:52.136Z,18.30
2018-04-19T10:02:54.706Z,24.20
2018-04-19T10:03:57.249Z,26.93
2018-04-19T10:05:02.612Z,22.20
2018-04-19T10:06:08.057Z,26.90
2018-04-19T10:07:10.676Z,28.43
2018-04-19T10:08:13.205Z,18.13
2018-04-19T10:09:16.540Z,20.43
2018-04-19T10:10:19.077Z,18.53
2018-04-19T10:11:21.653Z,22.10
2018-04-19T10:12:24.204Z,23.10
2018-04-19T10:13:26.733Z,17.27
2018-04-19T10:14:29.291Z,15.77
2018-04-19T10:15:31.819Z,20.33
2018-04-19T10:16:34.344Z,16.50
2018-04-19T10:17:36.869Z,15.57
2018-04-19T10:18:39.407Z,18.27
2018-04-19T10:19:41.975Z,18.20
2018-04-19T10:20:44.503Z,20.67
2018-04-19T10:21:47.064Z,16.10
2018-04-19T10:22:49.599Z,17.40
2018-04-19T10:23:52.132Z,18.23
2018-04-19T10:24:55.453Z,15.63
2018-04-19T10:25:58.009Z,13.93
2018-04-19T10:27:00.570Z,15.03
2018-04-19T10:28:03.095Z,15.80
2018-04-19T10:29:05.639Z,21.10
2018-04-19T10:30:08.166Z,14.43
2018-04-19T10:31:10.732Z,15.10
2018-04-19T10:32:13.255Z,19.07
2018-04-19T10:33:15.801Z,16.77
2018-04-19T10:34:18.332Z,13.10
2018-04-19T10:35:20.854Z,15.10
2018-04-19T10:36:23.428Z,21.77
2018-04-19T10:37:26.729Z,16.87
2018-04-19T10:38:30.017Z,11.53
2018-04-19T10:39:32.539Z,21.27
2018-04-19T10:40:35.060Z,19.83
2018-04-19T10:41:37.615Z,14.20
2018-04-19T10:42:40.135Z,18.43
2018-04-19T10:43:43.458Z,17.03
2018-04-19T10:44:46.750Z,15.80
2018-04-19T10:45:49.287Z,14.50
2018-04-19T10:46:51.819Z,16.43
2018-04-19T10:47:54.352Z,20.33
2018-04-19T10:48:56.935Z,15.30
2018-04-19T10:49:59.481Z,18.13
2018-04-19T10:51:02.015Z,16.30
2018-04-19T10:52:04.557Z,19.13
2018-04-19T10:53:07.077Z,15.53
2018-04-19T10:54:10.415Z,19.87
2018-04-19T10:55:12.955Z,17.67
2018-04-19T10:56:15.483Z,19.80
2018-04-19T10:57:18.791Z,16.43
2018-04-19T10:58:21.360Z,18.37
2018-04-19T10:59:23.918Z,20.50
2018-04-19T11:00:26.449Z,21.37
2018-04-19T11:01:28.976Z,18.30
2018-04-19T11:02:31.524Z,17.57
2018-04-19T11:03:34.104Z,15.63
2018-04-19T11:04:36.635Z,20.47
2018-04-19T11:05:39.931Z,20.23
2018-04-19T11:06:42.465Z,20.67
2018-04-19T11:07:44.999Z,17.07
2018-04-19T11:08:47.573Z,16.33
2018-04-19T11:09:50.104Z,17.23
2018-04-19T11:10:52.679Z,13.07
2018-04-19T11:11:55.227Z,10.93
2018-04-19T11:12:57.754Z,13.33
2018-04-19T11:14:00.292Z,13.43
2018-04-19T11:15:02.820Z,9.70
2018-04-19T11:16:06.164Z,13.27
2018-04-19T11:17:08.700Z,14.60
2018-04-19T11:18:11.232Z,14.43
2018-04-19T11:19:13.797Z,12.70
2018-04-19T11:20:17.091Z,13.17
2018-04-19T11:21:19.607Z,15.60
2018-04-19T11:22:22.172Z,14.90
2018-04-19T11:23:24.707Z,17.93
2018-04-19T11:24:27.235Z,15.07
2018-04-19T11:25:30.528Z,13.43
2018-04-19T11:26:33.844Z,13.17
2018-04-19T11:27:36.401Z,12.70
2018-04-19T11:28:38.976Z,16.20
2018-04-19T11:29:41.495Z,24.07
2018-04-19T11:30:44.024Z,13.23
2018-04-19T11:31:46.545Z,10.83
2018-04-19T11:32:49.834Z,18.50
2018-04-19T11:33:53.175Z,10.13
2018-04-19T11:34:55.695Z,12.20
2018-04-19T11:35:58.221Z,12.47
2018-04-19T11:37:00.738Z,16.17
2018-04-19T11:38:03.272Z,13.00
2018-04-19T11:39:05.844Z,10.40
2018-04-19T11:40:09.139Z,9.23
2018-04-19T11:41:11.676Z,11.60
2018-04-19T11:42:14.976Z,12.53
2018-04-19T11:43:17.548Z,10.13
2018-04-19T11:44:20.868Z,10.70
2018-04-19T11:45:23.440Z,12.93
2018-04-19T11:46:25.987Z,14.60
2018-04-19T11:47:28.536Z,13.57
2018-04-19T11:48:31.079Z,15.83
2018-04-19T11:49:33.604Z,14.03
2018-04-19T11:50:36.175Z,14.00
2018-04-19T11:51:38.712Z,10.90
2018-04-19T11:52:41.268Z,13.63
2018-04-19T11:53:43.817Z,10.90
2018-04-19T11:54:47.116Z,9.70
2018-04-19T11:55:49.683Z,8.03
2018-04-19T11:56:52.997Z,15.10
2018-04-19T11:57:55.525Z,15.53
2018-04-19T11:58:58.811Z,14.93
2018-04-19T12:00:01.380Z,15.47
2018-04-19T12:01:04.726Z,15.83
2018-04-19T12:02:07.263Z,11.70
2018-04-19T12:03:09.811Z,11.53
2018-04-19T12:04:12.334Z,9.83
2018-04-19T12:05:14.867Z,10.90
2018-04-19T12:06:17.421Z,12.07
2018-04-19T12:07:19.947Z,11.70
2018-04-19T12:08:22.471Z,11.50
2018-04-19T12:09:25.029Z,10.20
2018-04-19T12:10:27.586Z,12.07
2018-04-19T12:11:30.109Z,11.17
2018-04-19T12:12:32.635Z,17.43
2018-04-19T12:13:35.215Z,17.30
2018-04-19T12:14:37.757Z,18.53
2018-04-19T12:15:40.296Z,12.83
2018-04-19T12:16:44.503Z,17.00
2018-04-19T12:17:47.055Z,16.77
2018-04-19T12:18:50.356Z,11.93
2018-04-19T12:19:52.888Z,15.43
2018-04-19T12:20:55.408Z,14.07
2018-04-19T12:21:57.940Z,15.27
2018-04-19T12:23:01.276Z,11.43
2018-04-19T12:24:03.794Z,11.40
2018-04-19T12:25:07.098Z,12.60
2018-04-19T12:26:09.632Z,11.93
2018-04-19T12:27:12.159Z,13.20
2018-04-19T12:28:14.731Z,16.00
2018-04-19T12:29:17.292Z,8.60
2018-04-19T12:30:19.827Z,13.53
2018-04-19T12:31:22.382Z,14.27
2018-04-19T12:32:25.676Z,14.90
2018-04-19T12:33:28.232Z,14.37
2018-04-19T12:34:31.519Z,11.43
2018-04-19T12:35:34.053Z,11.03
2018-04-19T12:36:36.585Z,14.20
2018-04-19T12:37:39.136Z,14.63
2018-04-19T12:38:41.686Z,16.97
2018-04-19T12:39:44.981Z,15.73
2018-04-19T12:40:47.511Z,14.87
2018-04-19T12:41:50.807Z,18.87
2018-04-19T12:42:54.101Z,15.20
2018-04-19T12:43:57.506Z,16.07
2018-04-19T12:45:00.032Z,12.07
2018-04-19T12:46:02.552Z,19.77
2018-04-19T12:47:05.079Z,13.93
2018-04-19T12:48:08.372Z,14.87
2018-04-19T12:49:10.932Z,17.73
2018-04-19T12:50:14.220Z,13.17
2018-04-19T12:51:17.503Z,12.70
2018-04-19T12:52:20.825Z,14.40
2018-04-19T12:53:23.360Z,19.80
2018-04-19T12:54:25.894Z,15.23
2018-04-19T12:55:28.467Z,19.33
2018-04-19T12:56:31.035Z,17.60
2018-04-19T12:57:33.562Z,16.97
2018-04-19T12:58:36.093Z,11.57
2018-04-19T12:59:38.672Z,18.03
2018-04-19T13:00:41.249Z,12.70
2018-04-19T13:01:43.784Z,18.53
2018-04-19T13:02:46.335Z,16.60
2018-04-19T13:03:49.631Z,18.90
2018-04-19T13:04:52.194Z,16.20
2018-04-19T13:05:55.481Z,18.63
2018-04-19T13:06:58.775Z,16.63
2018-04-19T13:08:01.318Z,14.07
2018-04-19T13:09:04.638Z,12.80
2018-04-19T13:10:07.167Z,12.50
2018-04-19T13:11:09.724Z,18.90
2018-04-19T13:12:12.254Z,11.93
2018-04-19T13:13:14.810Z,18.03
2018-04-19T13:14:17.348Z,14.90
2018-04-19T13:15:20.636Z,15.80
2018-04-19T13:16:23.159Z,16.67
2018-04-19T13:17:25.680Z,20.10
2018-04-19T13:18:28.236Z,18.00
2018-04-19T13:19:30.759Z,15.43
2018-04-19T13:20:33.302Z,20.70
2018-04-19T13:21:35.832Z,16.70
2018-04-19T13:22:39.161Z,18.77
2018-04-19T13:23:41.683Z,16.97
2018-04-19T13:24:44.276Z,20.23
2018-04-19T13:25:46.818Z,16.20
2018-04-19T13:26:49.359Z,18.73
2018-04-19T13:27:51.889Z,21.63
2018-04-19T13:28:54.413Z,23.13
2018-04-19T13:29:56.995Z,15.30